sensor_id;sensor_type;location;lat;lon;timestamp;temperature;humidity
6014;DHT22;3035;49.928;8.410;2023-02-28T00:01:14;0.70;99.90
6014;DHT22;3035;49.928;8.410;2023-02-28T00:03:42;0.60;99.90
6014;DHT22;3035;49.928;8.410;2023-02-28T00:06:10;0.60;99.90
6014;DHT22;3035;49.928;8.410;2023-02-28T00:08:39;0.50;99.90
6014;DHT22;3035;49.928;8.410;2023-02-28T00:11:09;0.60;99.90
6014;DHT22;3035;49.928;8.410;2023-02-28T00:13:36;0.70;99.90
6014;DHT22;3035;49.928;8.410;2023-02-28T00:16:07;0.70;99.90
6014;DHT22;3035;49.928;8.410;2023-02-28T00:18:35;0.80;99.90
6014;DHT22;3035;49.928;8.410;2023-02-28T00:21:03;0.60;99.90
6014;DHT22;3035;49.928;8.410;2023-02-28T00:23:31;0.70;99.90
6014;DHT22;3035;49.928;8.410;2023-02-28T00:25:59;0.70;99.90
6014;DHT22;3035;49.928;8.410;2023-02-28T00:28:27;0.70;99.90
6014;DHT22;3035;49.928;8.410;2023-02-28T00:30:56;0.60;99.90
6014;DHT22;3035;49.928;8.410;2023-02-28T00:33:26;0.60;99.90
6014;DHT22;3035;49.928;8.410;2023-02-28T00:36:02;0.60;99.90
6014;DHT22;3035;49.928;8.410;2023-02-28T00:38:31;0.50;99.90
6014;DHT22;3035;49.928;8.410;2023-02-28T00:41:00;0.50;99.90
6014;DHT22;3035;49.928;8.410;2023-02-28T00:43:28;0.50;99.90
6014;DHT22;3035;49.928;8.410;2023-02-28T00:45:56;0.40;99.90
6014;DHT22;3035;49.928;8.410;2023-02-28T00:48:26;0.50;99.90
6014;DHT22;3035;49.928;8.410;2023-02-28T00:50:54;0.60;99.90
6014;DHT22;3035;49.928;8.410;2023-02-28T00:53:23;0.50;99.90
6014;DHT22;3035;49.928;8.410;2023-02-28T00:55:52;0.50;99.90
6014;DHT22;3035;49.928;8.410;2023-02-28T00:58:20;0.50;99.90
6014;DHT22;3035;49.928;8.410;2023-02-28T01:00:48;0.40;99.90
6014;DHT22;3035;49.928;8.410;2023-02-28T01:03:17;0.60;99.90
6014;DHT22;3035;49.928;8.410;2023-02-28T01:05:45;0.50;99.90
6014;DHT22;3035;49.928;8.410;2023-02-28T01:08:14;0.50;99.90
6014;DHT22;3035;49.928;8.410;2023-02-28T01:10:41;0.50;99.90
6014;DHT22;3035;49.928;8.410;2023-02-28T01:13:12;0.50;99.90
6014;DHT22;3035;49.928;8.410;2023-02-28T01:15:39;0.60;99.90
6014;DHT22;3035;49.928;8.410;2023-02-28T01:18:08;0.50;99.90
6014;DHT22;3035;49.928;8.410;2023-02-28T01:20:36;0.50;99.90
6014;DHT22;3035;49.928;8.410;2023-02-28T01:23:05;0.60;99.90
6014;DHT22;3035;49.928;8.410;2023-02-28T01:25:35;0.50;99.90
6014;DHT22;3035;49.928;8.410;2023-02-28T01:28:02;0.60;99.90
6014;DHT22;3035;49.928;8.410;2023-02-28T01:30:30;0.50;99.90
6014;DHT22;3035;49.928;8.410;2023-02-28T01:32:59;0.40;99.90
6014;DHT22;3035;49.928;8.410;2023-02-28T01:35:27;0.50;99.90
6014;DHT22;3035;49.928;8.410;2023-02-28T01:37:56;0.50;99.90
6014;DHT22;3035;49.928;8.410;2023-02-28T01:40:24;0.50;99.90
6014;DHT22;3035;49.928;8.410;2023-02-28T01:42:53;0.40;99.90
6014;DHT22;3035;49.928;8.410;2023-02-28T01:45:25;0.40;99.90
6014;DHT22;3035;49.928;8.410;2023-02-28T01:47:56;0.40;99.90
6014;DHT22;3035;49.928;8.410;2023-02-28T01:50:25;65536;65536
6014;DHT22;3035;49.928;8.410;2023-02-28T01:52:53;0.30;99.90
6014;DHT22;3035;49.928;8.410;2023-02-28T01:55:21;0.40;99.90
6014;DHT22;3035;49.928;8.410;2023-02-28T01:57:51;0.30;99.90
6014;DHT22;3035;49.928;8.410;2023-02-28T02:00:20;0.20;99.90
6014;DHT22;3035;49.928;8.410;2023-02-28T02:02:49;0.20;99.90
6014;DHT22;3035;49.928;8.410;2023-02-28T02:05:18;0.20;99.90
6014;DHT22;3035;49.928;8.410;2023-02-28T02:07:46;0.10;99.90
6014;DHT22;3035;49.928;8.410;2023-02-28T02:10:16;0.20;99.90
6014;DHT22;3035;49.928;8.410;2023-02-28T02:12:58;0.20;99.90
6014;DHT22;3035;49.928;8.410;2023-02-28T02:15:49;65536;65536
6014;DHT22;3035;49.928;8.410;2023-02-28T02:18:19;0.10;99.90
6014;DHT22;3035;49.928;8.410;2023-02-28T02:21:18;0.10;99.90
6014;DHT22;3035;49.928;8.410;2023-02-28T02:27:27;0.10;99.90
6014;DHT22;3035;49.928;8.410;2023-02-28T02:30:23;0.00;99.90
6014;DHT22;3035;49.928;8.410;2023-02-28T02:32:59;0.00;99.90
6014;DHT22;3035;49.928;8.410;2023-02-28T02:35:31;65536;65536
6014;DHT22;3035;49.928;8.410;2023-02-28T02:38:08;0.00;99.90
6014;DHT22;3035;49.928;8.410;2023-02-28T02:40:50;0.10;99.90
6014;DHT22;3035;49.928;8.410;2023-02-28T02:43:19;0.10;99.90
6014;DHT22;3035;49.928;8.410;2023-02-28T02:45:49;0.10;99.90
6014;DHT22;3035;49.928;8.410;2023-02-28T02:48:18;0.00;99.90
6014;DHT22;3035;49.928;8.410;2023-02-28T02:50:49;65536;65536
6014;DHT22;3035;49.928;8.410;2023-02-28T02:53:18;65536;65536
6014;DHT22;3035;49.928;8.410;2023-02-28T02:55:47;65536;65536
6014;DHT22;3035;49.928;8.410;2023-02-28T02:58:16;-0.10;99.90
6014;DHT22;3035;49.928;8.410;2023-02-28T03:00:45;-0.10;99.90
6014;DHT22;3035;49.928;8.410;2023-02-28T03:03:12;-0.10;99.90
6014;DHT22;3035;49.928;8.410;2023-02-28T03:05:44;65536;65536
6014;DHT22;3035;49.928;8.410;2023-02-28T03:08:10;-0.10;99.90
6014;DHT22;3035;49.928;8.410;2023-02-28T03:10:40;65536;65536
6014;DHT22;3035;49.928;8.410;2023-02-28T03:13:16;-0.20;99.90
6014;DHT22;3035;49.928;8.410;2023-02-28T03:18:46;-0.20;99.90
6014;DHT22;3035;49.928;8.410;2023-02-28T03:21:30;-0.10;99.90
6014;DHT22;3035;49.928;8.410;2023-02-28T03:26:42;-0.20;99.90
6014;DHT22;3035;49.928;8.410;2023-02-28T03:29:28;-0.20;99.90
6014;DHT22;3035;49.928;8.410;2023-02-28T03:32:00;-0.20;99.90
6014;DHT22;3035;49.928;8.410;2023-02-28T03:34:34;-0.20;99.90
6014;DHT22;3035;49.928;8.410;2023-02-28T03:37:04;-0.20;99.90
6014;DHT22;3035;49.928;8.410;2023-02-28T03:39:39;-0.20;99.90
6014;DHT22;3035;49.928;8.410;2023-02-28T03:42:11;-0.20;99.90
6014;DHT22;3035;49.928;8.410;2023-02-28T03:44:40;-0.30;99.90
6014;DHT22;3035;49.928;8.410;2023-02-28T03:47:10;-0.50;99.90
6014;DHT22;3035;49.928;8.410;2023-02-28T03:49:45;65536;65536
6014;DHT22;3035;49.928;8.410;2023-02-28T03:52:13;65536;65536
6014;DHT22;3035;49.928;8.410;2023-02-28T03:54:43;-0.30;99.90
6014;DHT22;3035;49.928;8.410;2023-02-28T03:57:18;65536;65536
6014;DHT22;3035;49.928;8.410;2023-02-28T04:00:03;-0.30;99.90
6014;DHT22;3035;49.928;8.410;2023-02-28T04:02:29;-0.30;99.90
6014;DHT22;3035;49.928;8.410;2023-02-28T04:04:57;-0.40;99.90
6014;DHT22;3035;49.928;8.410;2023-02-28T04:07:28;-0.30;99.90
6014;DHT22;3035;49.928;8.410;2023-02-28T04:09:54;65536;65536
6014;DHT22;3035;49.928;8.410;2023-02-28T04:12:23;-0.40;99.90
6014;DHT22;3035;49.928;8.410;2023-02-28T04:14:51;-0.30;99.90
6014;DHT22;3035;49.928;8.410;2023-02-28T04:17:19;-0.40;99.90
6014;DHT22;3035;49.928;8.410;2023-02-28T04:19:48;65536;65536
6014;DHT22;3035;49.928;8.410;2023-02-28T04:22:16;-0.40;99.90
6014;DHT22;3035;49.928;8.410;2023-02-28T04:24:46;65536;65536
6014;DHT22;3035;49.928;8.410;2023-02-28T04:27:14;-0.40;99.90
6014;DHT22;3035;49.928;8.410;2023-02-28T04:29:42;-0.30;99.90
6014;DHT22;3035;49.928;8.410;2023-02-28T04:32:11;-0.40;99.90
6014;DHT22;3035;49.928;8.410;2023-02-28T04:34:39;-0.40;99.90
6014;DHT22;3035;49.928;8.410;2023-02-28T04:37:07;-0.40;99.90
6014;DHT22;3035;49.928;8.410;2023-02-28T04:39:36;-0.50;99.90
6014;DHT22;3035;49.928;8.410;2023-02-28T04:42:05;-0.50;99.90
6014;DHT22;3035;49.928;8.410;2023-02-28T04:44:33;-0.50;99.90
6014;DHT22;3035;49.928;8.410;2023-02-28T04:47:02;-0.50;99.90
6014;DHT22;3035;49.928;8.410;2023-02-28T04:49:30;-0.50;99.90
6014;DHT22;3035;49.928;8.410;2023-02-28T04:51:58;-0.60;99.90
6014;DHT22;3035;49.928;8.410;2023-02-28T04:54:27;65536;65536
6014;DHT22;3035;49.928;8.410;2023-02-28T04:56:57;65536;65536
6014;DHT22;3035;49.928;8.410;2023-02-28T04:59:25;-0.40;99.90
6014;DHT22;3035;49.928;8.410;2023-02-28T05:01:54;65536;65536
6014;DHT22;3035;49.928;8.410;2023-02-28T05:04:22;-0.30;99.90
6014;DHT22;3035;49.928;8.410;2023-02-28T05:06:51;-0.40;99.90
6014;DHT22;3035;49.928;8.410;2023-02-28T05:09:19;-0.40;99.90
6014;DHT22;3035;49.928;8.410;2023-02-28T05:11:48;-0.40;99.90
6014;DHT22;3035;49.928;8.410;2023-02-28T05:14:16;-0.40;99.90
6014;DHT22;3035;49.928;8.410;2023-02-28T05:16:45;65536;65536
6014;DHT22;3035;49.928;8.410;2023-02-28T05:19:13;-0.40;99.90
6014;DHT22;3035;49.928;8.410;2023-02-28T05:21:48;-0.50;99.90
6014;DHT22;3035;49.928;8.410;2023-02-28T05:24:21;-0.60;99.90
6014;DHT22;3035;49.928;8.410;2023-02-28T05:26:52;65536;65536
6014;DHT22;3035;49.928;8.410;2023-02-28T05:29:20;-0.40;99.90
6014;DHT22;3035;49.928;8.410;2023-02-28T05:31:48;-0.50;99.90
6014;DHT22;3035;49.928;8.410;2023-02-28T05:34:17;-0.50;99.90
6014;DHT22;3035;49.928;8.410;2023-02-28T05:36:45;-0.40;99.90
6014;DHT22;3035;49.928;8.410;2023-02-28T05:39:13;-0.50;99.90
6014;DHT22;3035;49.928;8.410;2023-02-28T05:41:42;-0.50;99.90
6014;DHT22;3035;49.928;8.410;2023-02-28T05:44:10;-0.50;99.90
6014;DHT22;3035;49.928;8.410;2023-02-28T05:46:38;-0.40;99.90
6014;DHT22;3035;49.928;8.410;2023-02-28T05:49:07;-0.50;99.90
6014;DHT22;3035;49.928;8.410;2023-02-28T05:51:35;-0.60;99.90
6014;DHT22;3035;49.928;8.410;2023-02-28T05:54:03;-0.50;99.90
6014;DHT22;3035;49.928;8.410;2023-02-28T05:56:32;-0.60;99.90
6014;DHT22;3035;49.928;8.410;2023-02-28T05:59:03;65536;65536
6014;DHT22;3035;49.928;8.410;2023-02-28T06:01:36;-0.60;99.90
6014;DHT22;3035;49.928;8.410;2023-02-28T06:04:05;65536;65536
6014;DHT22;3035;49.928;8.410;2023-02-28T06:06:34;65536;65536
6014;DHT22;3035;49.928;8.410;2023-02-28T06:09:03;-0.70;99.90
6014;DHT22;3035;49.928;8.410;2023-02-28T06:11:32;-0.70;99.90
6014;DHT22;3035;49.928;8.410;2023-02-28T06:14:00;-0.60;99.90
6014;DHT22;3035;49.928;8.410;2023-02-28T06:16:28;-0.60;99.90
6014;DHT22;3035;49.928;8.410;2023-02-28T06:18:57;65536;65536
6014;DHT22;3035;49.928;8.410;2023-02-28T06:21:26;-0.70;99.90
6014;DHT22;3035;49.928;8.410;2023-02-28T06:23:54;-0.70;99.90
6014;DHT22;3035;49.928;8.410;2023-02-28T06:26:22;-0.70;99.90
6014;DHT22;3035;49.928;8.410;2023-02-28T06:28:50;-0.70;99.90
6014;DHT22;3035;49.928;8.410;2023-02-28T06:31:18;-0.70;99.90
6014;DHT22;3035;49.928;8.410;2023-02-28T06:33:47;-0.80;99.90
6014;DHT22;3035;49.928;8.410;2023-02-28T06:36:15;-0.70;99.90
6014;DHT22;3035;49.928;8.410;2023-02-28T06:38:44;-0.80;99.90
6014;DHT22;3035;49.928;8.410;2023-02-28T06:41:13;-0.60;99.90
6014;DHT22;3035;49.928;8.410;2023-02-28T06:43:41;-0.70;99.90
6014;DHT22;3035;49.928;8.410;2023-02-28T06:46:11;-0.50;99.90
6014;DHT22;3035;49.928;8.410;2023-02-28T06:48:38;65536;65536
6014;DHT22;3035;49.928;8.410;2023-02-28T06:51:09;-0.60;99.90
6014;DHT22;3035;49.928;8.410;2023-02-28T06:53:36;-0.60;99.90
6014;DHT22;3035;49.928;8.410;2023-02-28T06:56:08;65536;65536
6014;DHT22;3035;49.928;8.410;2023-02-28T06:58:36;-0.40;99.90
6014;DHT22;3035;49.928;8.410;2023-02-28T07:01:06;65536;65536
6014;DHT22;3035;49.928;8.410;2023-02-28T07:03:34;-0.40;99.90
6014;DHT22;3035;49.928;8.410;2023-02-28T07:06:04;-0.30;99.90
6014;DHT22;3035;49.928;8.410;2023-02-28T07:08:31;-0.30;99.90
6014;DHT22;3035;49.928;8.410;2023-02-28T07:10:59;-0.20;99.90
6014;DHT22;3035;49.928;8.410;2023-02-28T07:13:28;-0.20;99.90
6014;DHT22;3035;49.928;8.410;2023-02-28T07:15:58;-0.20;99.90
6014;DHT22;3035;49.928;8.410;2023-02-28T07:18:25;-0.20;99.90
6014;DHT22;3035;49.928;8.410;2023-02-28T07:20:54;65536;65536
6014;DHT22;3035;49.928;8.410;2023-02-28T07:23:23;-0.20;99.90
6014;DHT22;3035;49.928;8.410;2023-02-28T07:25:51;-0.10;99.90
6014;DHT22;3035;49.928;8.410;2023-02-28T07:28:19;-0.10;99.90
6014;DHT22;3035;49.928;8.410;2023-02-28T07:30:48;0.00;99.90
6014;DHT22;3035;49.928;8.410;2023-02-28T07:33:16;0.00;99.90
6014;DHT22;3035;49.928;8.410;2023-02-28T07:35:44;0.00;99.90
6014;DHT22;3035;49.928;8.410;2023-02-28T07:38:13;0.00;99.90
6014;DHT22;3035;49.928;8.410;2023-02-28T07:40:41;0.10;99.90
6014;DHT22;3035;49.928;8.410;2023-02-28T07:43:09;0.20;99.90
6014;DHT22;3035;49.928;8.410;2023-02-28T07:45:38;0.30;99.90
6014;DHT22;3035;49.928;8.410;2023-02-28T07:48:07;65536;65536
6014;DHT22;3035;49.928;8.410;2023-02-28T07:50:35;0.50;99.90
6014;DHT22;3035;49.928;8.410;2023-02-28T07:53:04;65536;65536
6014;DHT22;3035;49.928;8.410;2023-02-28T07:55:34;65536;65536
6014;DHT22;3035;49.928;8.410;2023-02-28T07:58:02;0.60;99.90
6014;DHT22;3035;49.928;8.410;2023-02-28T08:00:30;0.70;99.90
6014;DHT22;3035;49.928;8.410;2023-02-28T08:02:59;65536;65536
6014;DHT22;3035;49.928;8.410;2023-02-28T08:05:28;0.70;99.90
6014;DHT22;3035;49.928;8.410;2023-02-28T08:07:56;0.70;99.90
6014;DHT22;3035;49.928;8.410;2023-02-28T08:10:25;0.80;99.90
6014;DHT22;3035;49.928;8.410;2023-02-28T08:12:53;0.80;99.90
6014;DHT22;3035;49.928;8.410;2023-02-28T08:15:21;0.90;99.90
6014;DHT22;3035;49.928;8.410;2023-02-28T08:17:49;0.90;99.90
6014;DHT22;3035;49.928;8.410;2023-02-28T08:20:18;0.90;99.90
6014;DHT22;3035;49.928;8.410;2023-02-28T08:22:47;1.00;99.90
6014;DHT22;3035;49.928;8.410;2023-02-28T08:25:16;1.10;99.90
6014;DHT22;3035;49.928;8.410;2023-02-28T08:27:44;1.20;99.90
6014;DHT22;3035;49.928;8.410;2023-02-28T08:30:14;1.20;99.90
6014;DHT22;3035;49.928;8.410;2023-02-28T08:32:43;65536;65536
6014;DHT22;3035;49.928;8.410;2023-02-28T08:35:11;1.60;99.90
6014;DHT22;3035;49.928;8.410;2023-02-28T08:37:40;1.90;99.90
6014;DHT22;3035;49.928;8.410;2023-02-28T08:40:09;1.70;99.90
6014;DHT22;3035;49.928;8.410;2023-02-28T08:42:38;1.90;99.90
6014;DHT22;3035;49.928;8.410;2023-02-28T08:45:08;65536;65536
6014;DHT22;3035;49.928;8.410;2023-02-28T08:47:36;2.00;99.90
6014;DHT22;3035;49.928;8.410;2023-02-28T08:50:05;1.80;99.90
6014;DHT22;3035;49.928;8.410;2023-02-28T08:52:33;1.80;99.90
6014;DHT22;3035;49.928;8.410;2023-02-28T08:55:01;1.90;99.90
6014;DHT22;3035;49.928;8.410;2023-02-28T08:57:29;2.00;99.90
6014;DHT22;3035;49.928;8.410;2023-02-28T08:59:58;2.00;99.90
6014;DHT22;3035;49.928;8.410;2023-02-28T09:02:27;2.00;99.90
6014;DHT22;3035;49.928;8.410;2023-02-28T09:04:55;2.00;99.90
6014;DHT22;3035;49.928;8.410;2023-02-28T09:07:23;2.10;99.90
6014;DHT22;3035;49.928;8.410;2023-02-28T09:09:52;2.20;99.90
6014;DHT22;3035;49.928;8.410;2023-02-28T09:12:22;2.40;99.90
6014;DHT22;3035;49.928;8.410;2023-02-28T09:14:49;2.30;99.90
6014;DHT22;3035;49.928;8.410;2023-02-28T09:17:17;2.40;99.90
6014;DHT22;3035;49.928;8.410;2023-02-28T09:19:47;2.30;99.90
6014;DHT22;3035;49.928;8.410;2023-02-28T09:22:14;2.40;99.90
6014;DHT22;3035;49.928;8.410;2023-02-28T09:24:43;2.50;99.90
6014;DHT22;3035;49.928;8.410;2023-02-28T09:27:11;2.60;99.90
6014;DHT22;3035;49.928;8.410;2023-02-28T09:29:40;2.50;99.90
6014;DHT22;3035;49.928;8.410;2023-02-28T09:32:08;2.50;99.90
6014;DHT22;3035;49.928;8.410;2023-02-28T09:34:36;2.40;99.90
6014;DHT22;3035;49.928;8.410;2023-02-28T09:37:04;2.50;99.90
6014;DHT22;3035;49.928;8.410;2023-02-28T09:39:34;65536;65536
6014;DHT22;3035;49.928;8.410;2023-02-28T09:42:03;2.70;99.90
6014;DHT22;3035;49.928;8.410;2023-02-28T09:44:34;2.60;99.90
6014;DHT22;3035;49.928;8.410;2023-02-28T09:47:07;2.60;99.90
6014;DHT22;3035;49.928;8.410;2023-02-28T09:49:39;2.60;99.90
6014;DHT22;3035;49.928;8.410;2023-02-28T09:52:10;2.80;99.90
6014;DHT22;3035;49.928;8.410;2023-02-28T09:54:38;65536;65536
6014;DHT22;3035;49.928;8.410;2023-02-28T09:57:10;65536;65536
6014;DHT22;3035;49.928;8.410;2023-02-28T10:02:33;65536;65536
6014;DHT22;3035;49.928;8.410;2023-02-28T10:05:08;65536;65536
6014;DHT22;3035;49.928;8.410;2023-02-28T10:13:02;65536;65536
6014;DHT22;3035;49.928;8.410;2023-02-28T10:15:31;65536;65536
6014;DHT22;3035;49.928;8.410;2023-02-28T10:18:02;65536;65536
6014;DHT22;3035;49.928;8.410;2023-02-28T10:20:31;65536;65536
6014;DHT22;3035;49.928;8.410;2023-02-28T10:23:03;65536;65536
6014;DHT22;3035;49.928;8.410;2023-02-28T10:25:35;65536;65536
6014;DHT22;3035;49.928;8.410;2023-02-28T10:28:13;65536;65536
6014;DHT22;3035;49.928;8.410;2023-02-28T10:30:45;65536;65536
6014;DHT22;3035;49.928;8.410;2023-02-28T10:33:18;65536;65536
6014;DHT22;3035;49.928;8.410;2023-02-28T10:35:51;65536;65536
6014;DHT22;3035;49.928;8.410;2023-02-28T10:38:23;65536;65536
6014;DHT22;3035;49.928;8.410;2023-02-28T10:40:51;65536;65536
6014;DHT22;3035;49.928;8.410;2023-02-28T10:43:21;65536;65536
6014;DHT22;3035;49.928;8.410;2023-02-28T10:45:59;65536;65536
6014;DHT22;3035;49.928;8.410;2023-02-28T10:48:32;65536;65536
6014;DHT22;3035;49.928;8.410;2023-02-28T10:51:00;65536;65536
6014;DHT22;3035;49.928;8.410;2023-02-28T10:53:36;65536;65536
6014;DHT22;3035;49.928;8.410;2023-02-28T10:56:24;65536;65536
6014;DHT22;3035;49.928;8.410;2023-02-28T10:58:56;65536;65536
6014;DHT22;3035;49.928;8.410;2023-02-28T11:01:42;65536;65536
6014;DHT22;3035;49.928;8.410;2023-02-28T11:04:18;65536;65536
6014;DHT22;3035;49.928;8.410;2023-02-28T11:06:46;65536;65536
6014;DHT22;3035;49.928;8.410;2023-02-28T11:09:23;65536;65536
6014;DHT22;3035;49.928;8.410;2023-02-28T11:12:00;65536;65536
6014;DHT22;3035;49.928;8.410;2023-02-28T11:14:31;65536;65536
6014;DHT22;3035;49.928;8.410;2023-02-28T11:17:02;65536;65536
6014;DHT22;3035;49.928;8.410;2023-02-28T11:19:33;65536;65536
6014;DHT22;3035;49.928;8.410;2023-02-28T11:22:01;65536;65536
6014;DHT22;3035;49.928;8.410;2023-02-28T11:24:31;65536;65536
6014;DHT22;3035;49.928;8.410;2023-02-28T11:27:00;65536;65536
6014;DHT22;3035;49.928;8.410;2023-02-28T11:29:31;65536;65536
6014;DHT22;3035;49.928;8.410;2023-02-28T11:32:04;65536;65536
6014;DHT22;3035;49.928;8.410;2023-02-28T11:34:33;65536;65536
6014;DHT22;3035;49.928;8.410;2023-02-28T11:37:03;65536;65536
6014;DHT22;3035;49.928;8.410;2023-02-28T11:39:32;65536;65536
6014;DHT22;3035;49.928;8.410;2023-02-28T11:42:32;65536;65536
6014;DHT22;3035;49.928;8.410;2023-02-28T11:45:15;65536;65536
6014;DHT22;3035;49.928;8.410;2023-02-28T11:48:08;65536;65536
6014;DHT22;3035;49.928;8.410;2023-02-28T11:50:52;65536;65536
6014;DHT22;3035;49.928;8.410;2023-02-28T11:56:36;65536;65536
6014;DHT22;3035;49.928;8.410;2023-02-28T11:59:25;65536;65536
6014;DHT22;3035;49.928;8.410;2023-02-28T12:04:46;65536;65536
6014;DHT22;3035;49.928;8.410;2023-02-28T12:07:30;65536;65536
6014;DHT22;3035;49.928;8.410;2023-02-28T12:10:02;65536;65536
6014;DHT22;3035;49.928;8.410;2023-02-28T12:12:45;65536;65536
6014;DHT22;3035;49.928;8.410;2023-02-28T12:15:40;65536;65536
6014;DHT22;3035;49.928;8.410;2023-02-28T12:18:20;65536;65536
6014;DHT22;3035;49.928;8.410;2023-02-28T12:24:01;65536;65536
6014;DHT22;3035;49.928;8.410;2023-02-28T12:26:34;65536;65536
6014;DHT22;3035;49.928;8.410;2023-02-28T12:31:55;65536;65536
6014;DHT22;3035;49.928;8.410;2023-02-28T12:34:27;65536;65536
6014;DHT22;3035;49.928;8.410;2023-02-28T12:36:56;65536;65536
6014;DHT22;3035;49.928;8.410;2023-02-28T12:39:29;65536;65536
6014;DHT22;3035;49.928;8.410;2023-02-28T12:41:59;65536;65536
6014;DHT22;3035;49.928;8.410;2023-02-28T12:44:32;65536;65536
6014;DHT22;3035;49.928;8.410;2023-02-28T12:47:03;65536;65536
6014;DHT22;3035;49.928;8.410;2023-02-28T12:49:33;65536;65536
6014;DHT22;3035;49.928;8.410;2023-02-28T12:52:02;65536;65536
6014;DHT22;3035;49.928;8.410;2023-02-28T12:54:41;65536;65536
6014;DHT22;3035;49.928;8.410;2023-02-28T12:57:13;65536;65536
6014;DHT22;3035;49.928;8.410;2023-02-28T12:59:45;65536;65536
6014;DHT22;3035;49.928;8.410;2023-02-28T13:02:26;65536;65536
6014;DHT22;3035;49.928;8.410;2023-02-28T13:08:03;65536;65536
6014;DHT22;3035;49.928;8.410;2023-02-28T13:10:39;65536;65536
6014;DHT22;3035;49.928;8.410;2023-02-28T13:13:17;65536;65536
6014;DHT22;3035;49.928;8.410;2023-02-28T13:15:57;65536;65536
6014;DHT22;3035;49.928;8.410;2023-02-28T13:18:28;65536;65536
6014;DHT22;3035;49.928;8.410;2023-02-28T13:21:07;65536;65536
6014;DHT22;3035;49.928;8.410;2023-02-28T13:23:39;65536;65536
6014;DHT22;3035;49.928;8.410;2023-02-28T13:26:07;65536;65536
6014;DHT22;3035;49.928;8.410;2023-02-28T13:28:58;65536;65536
6014;DHT22;3035;49.928;8.410;2023-02-28T13:31:28;65536;65536
6014;DHT22;3035;49.928;8.410;2023-02-28T13:34:12;65536;65536
6014;DHT22;3035;49.928;8.410;2023-02-28T13:36:43;65536;65536
6014;DHT22;3035;49.928;8.410;2023-02-28T13:45:20;65536;65536
6014;DHT22;3035;49.928;8.410;2023-02-28T13:47:56;65536;65536
6014;DHT22;3035;49.928;8.410;2023-02-28T13:50:32;65536;65536
6014;DHT22;3035;49.928;8.410;2023-02-28T13:56:07;65536;65536
6014;DHT22;3035;49.928;8.410;2023-02-28T13:58:54;65536;65536
6014;DHT22;3035;49.928;8.410;2023-02-28T14:01:50;65536;65536
6014;DHT22;3035;49.928;8.410;2023-02-28T14:04:40;65536;65536
6014;DHT22;3035;49.928;8.410;2023-02-28T14:07:20;65536;65536
6014;DHT22;3035;49.928;8.410;2023-02-28T14:09:52;65536;65536
6014;DHT22;3035;49.928;8.410;2023-02-28T14:17:55;65536;65536
6014;DHT22;3035;49.928;8.410;2023-02-28T14:20:25;65536;65536
6014;DHT22;3035;49.928;8.410;2023-02-28T14:23:01;65536;65536
6014;DHT22;3035;49.928;8.410;2023-02-28T14:25:32;65536;65536
6014;DHT22;3035;49.928;8.410;2023-02-28T14:34:15;65536;65536
6014;DHT22;3035;49.928;8.410;2023-02-28T14:36:57;65536;65536
6014;DHT22;3035;49.928;8.410;2023-02-28T14:39:26;65536;65536
6014;DHT22;3035;49.928;8.410;2023-02-28T14:41:57;65536;65536
6014;DHT22;3035;49.928;8.410;2023-02-28T14:44:28;65536;65536
6014;DHT22;3035;49.928;8.410;2023-02-28T14:47:00;65536;65536
6014;DHT22;3035;49.928;8.410;2023-02-28T14:49:35;65536;65536
6014;DHT22;3035;49.928;8.410;2023-02-28T14:52:22;65536;65536
6014;DHT22;3035;49.928;8.410;2023-02-28T14:54:54;65536;65536
6014;DHT22;3035;49.928;8.410;2023-02-28T14:57:29;65536;65536
6014;DHT22;3035;49.928;8.410;2023-02-28T15:00:03;65536;65536
6014;DHT22;3035;49.928;8.410;2023-02-28T15:02:33;65536;65536
6014;DHT22;3035;49.928;8.410;2023-02-28T15:05:22;65536;65536
6014;DHT22;3035;49.928;8.410;2023-02-28T15:07:30;65536;65536
6014;DHT22;3035;49.928;8.410;2023-02-28T15:10:19;65536;65536
6014;DHT22;3035;49.928;8.410;2023-02-28T15:12:52;65536;65536
6014;DHT22;3035;49.928;8.410;2023-02-28T15:15:21;65536;65536
6014;DHT22;3035;49.928;8.410;2023-02-28T15:17:51;65536;65536
6014;DHT22;3035;49.928;8.410;2023-02-28T15:20:20;65536;65536
6014;DHT22;3035;49.928;8.410;2023-02-28T15:22:50;65536;65536
6014;DHT22;3035;49.928;8.410;2023-02-28T15:25:20;65536;65536
6014;DHT22;3035;49.928;8.410;2023-02-28T15:27:50;65536;65536
6014;DHT22;3035;49.928;8.410;2023-02-28T15:30:19;65536;65536
6014;DHT22;3035;49.928;8.410;2023-02-28T15:35:31;65536;65536
6014;DHT22;3035;49.928;8.410;2023-02-28T15:38:02;65536;65536
6014;DHT22;3035;49.928;8.410;2023-02-28T15:40:36;65536;65536
6014;DHT22;3035;49.928;8.410;2023-02-28T15:43:06;65536;65536
6014;DHT22;3035;49.928;8.410;2023-02-28T15:45:36;65536;65536
6014;DHT22;3035;49.928;8.410;2023-02-28T15:48:28;65536;65536
6014;DHT22;3035;49.928;8.410;2023-02-28T15:51:01;65536;65536
6014;DHT22;3035;49.928;8.410;2023-02-28T15:53:39;65536;65536
6014;DHT22;3035;49.928;8.410;2023-02-28T15:56:19;65536;65536
6014;DHT22;3035;49.928;8.410;2023-02-28T15:59:02;65536;65536
6014;DHT22;3035;49.928;8.410;2023-02-28T16:01:32;65536;65536
6014;DHT22;3035;49.928;8.410;2023-02-28T16:04:04;65536;65536
6014;DHT22;3035;49.928;8.410;2023-02-28T16:06:34;65536;65536
6014;DHT22;3035;49.928;8.410;2023-02-28T16:09:04;65536;65536
6014;DHT22;3035;49.928;8.410;2023-02-28T16:11:33;65536;65536
6014;DHT22;3035;49.928;8.410;2023-02-28T16:14:02;65536;65536
6014;DHT22;3035;49.928;8.410;2023-02-28T16:16:31;65536;65536
6014;DHT22;3035;49.928;8.410;2023-02-28T16:19:00;65536;65536
6014;DHT22;3035;49.928;8.410;2023-02-28T16:21:30;65536;65536
6014;DHT22;3035;49.928;8.410;2023-02-28T16:23:59;65536;65536
6014;DHT22;3035;49.928;8.410;2023-02-28T16:26:28;65536;65536
6014;DHT22;3035;49.928;8.410;2023-02-28T16:28:58;65536;65536
6014;DHT22;3035;49.928;8.410;2023-02-28T16:31:27;65536;65536
6014;DHT22;3035;49.928;8.410;2023-02-28T16:33:57;65536;65536
6014;DHT22;3035;49.928;8.410;2023-02-28T16:36:26;65536;65536
6014;DHT22;3035;49.928;8.410;2023-02-28T16:38:55;65536;65536
6014;DHT22;3035;49.928;8.410;2023-02-28T16:41:25;65536;65536
6014;DHT22;3035;49.928;8.410;2023-02-28T16:43:55;65536;65536
6014;DHT22;3035;49.928;8.410;2023-02-28T16:46:30;65536;65536
6014;DHT22;3035;49.928;8.410;2023-02-28T16:48:57;65536;65536
6014;DHT22;3035;49.928;8.410;2023-02-28T16:51:26;65536;65536
6014;DHT22;3035;49.928;8.410;2023-02-28T16:53:55;65536;65536
6014;DHT22;3035;49.928;8.410;2023-02-28T16:56:25;65536;65536
6014;DHT22;3035;49.928;8.410;2023-02-28T16:58:55;65536;65536
6014;DHT22;3035;49.928;8.410;2023-02-28T17:01:24;65536;65536
6014;DHT22;3035;49.928;8.410;2023-02-28T17:03:53;65536;65536
6014;DHT22;3035;49.928;8.410;2023-02-28T17:06:23;65536;65536
6014;DHT22;3035;49.928;8.410;2023-02-28T17:08:52;65536;65536
6014;DHT22;3035;49.928;8.410;2023-02-28T17:11:21;65536;65536
6014;DHT22;3035;49.928;8.410;2023-02-28T17:13:50;65536;65536
6014;DHT22;3035;49.928;8.410;2023-02-28T17:16:25;65536;65536
6014;DHT22;3035;49.928;8.410;2023-02-28T17:18:58;65536;65536
6014;DHT22;3035;49.928;8.410;2023-02-28T17:21:27;65536;65536
6014;DHT22;3035;49.928;8.410;2023-02-28T17:23:56;65536;65536
6014;DHT22;3035;49.928;8.410;2023-02-28T17:26:26;65536;65536
6014;DHT22;3035;49.928;8.410;2023-02-28T17:28:57;65536;65536